Time;durP1;ratioP1;P1;durP2;ratioP2;P2;SDS_P1;SDS_P2;PMS_P1;PMS_P2;Temp;Humidity;BMP_temperature;BMP_pressure;BME280_temperature;BME280_humidity;BME280_pressure;Samples;Min_cycle;Max_cycle;Signal;HPM_P1;HPM_P2
2021/10/07 00:02:23;;;;;;;21.55;14.30;;;;;;;;;;5014789;28;20050;-66
2021/10/07 00:05:09;;;;;;;16.75;11.32;;;;;;;;;;5014881;28;20053;-66
2021/10/07 00:07:54;;;;;;;20.83;12.50;;;;;;;;;;5015600;28;20084;-66
2021/10/07 00:10:39;;;;;;;31.25;11.23;;;;;;;;;;5015342;28;20054;-66
2021/10/07 00:13:25;;;;;;;18.52;9.27;;;;;;;;;;5008798;28;20050;-66
2021/10/07 00:16:10;;;;;;;10.27;6.57;;;;;;;;;;5015066;28;20488;-66
2021/10/07 00:18:55;;;;;;;9.93;6.78;;;;;;;;;;5015275;28;20093;-66
2021/10/07 00:21:40;;;;;;;14.90;8.15;;;;;;;;;;5014801;28;20077;-66
2021/10/07 00:24:26;;;;;;;40.95;17.27;;;;;;;;;;5013369;28;20058;-66
2021/10/07 00:27:11;;;;;;;17.80;12.07;;;;;;;;;;5015198;28;20050;-66
2021/10/07 00:30:00;;;;;;;25.02;15.38;;;;;;;;;;5014974;28;20053;-66
2021/10/07 00:41:29;;;;;;;21.50;5.70;;;;;;;;;;5014877;28;20050;-66
2021/10/07 00:44:14;;;;;;;25.63;7.88;;;;;;;;;;5014077;28;20065;-66
2021/10/07 00:47:01;;;;;;;13.90;8.30;;;;;;;;;;5013339;28;20050;-67
2021/10/07 00:49:46;;;;;;;11.75;8.38;;;;;;;;;;5014573;28;20064;-66
2021/10/07 00:52:32;;;;;;;13.57;8.70;;;;;;;;;;5014306;28;20057;-66
2021/10/07 00:55:17;;;;;;;13.60;8.73;;;;;;;;;;5014033;28;20049;-66
2021/10/07 00:58:02;;;;;;;11.35;8.18;;;;;;;;;;5014436;28;20050;-66
2021/10/07 01:00:48;;;;;;;12.50;9.30;;;;;;;;;;5014573;28;20408;-66
2021/10/07 01:03:33;;;;;;;18.23;11.00;;;;;;;;;;5013753;28;20563;-66
2021/10/07 01:06:18;;;;;;;21.35;12.55;;;;;;;;;;5014305;28;20050;-66
2021/10/07 01:09:05;;;;;;;15.15;10.93;;;;;;;;;;5014321;28;20054;-66
2021/10/07 01:11:50;;;;;;;14.10;10.32;;;;;;;;;;5014117;28;20062;-66
2021/10/07 01:14:52;;;;;;;18.77;11.93;;;;;;;;;;5013653;28;20058;-66
2021/10/07 01:17:38;;;;;;;15.53;9.23;;;;;;;;;;5013991;28;20050;-66
2021/10/07 01:20:23;;;;;;;36.83;16.63;;;;;;;;;;5013988;28;20058;-66
2021/10/07 01:23:08;;;;;;;24.27;12.40;;;;;;;;;;5013904;28;20049;-66
2021/10/07 01:25:53;;;;;;;22.23;12.43;;;;;;;;;;4994284;28;20050;-66
2021/10/07 01:28:42;;;;;;;25.27;13.27;;;;;;;;;;4994245;28;20050;-66
2021/10/07 01:31:27;;;;;;;31.33;15.45;;;;;;;;;;4994242;28;20058;-66
2021/10/07 01:34:13;;;;;;;29.30;14.63;;;;;;;;;;4997322;28;20050;-66
2021/10/07 01:36:58;;;;;;;40.72;18.63;;;;;;;;;;5013542;28;20050;-65
2021/10/07 01:39:43;;;;;;;38.40;19.48;;;;;;;;;;5013679;28;20049;-66
2021/10/07 01:42:29;;;;;;;37.53;19.88;;;;;;;;;;5013567;28;20054;-66
2021/10/07 01:45:14;;;;;;;30.55;16.60;;;;;;;;;;5012952;28;20516;-66
2021/10/07 01:47:59;;;;;;;24.40;13.95;;;;;;;;;;5012665;28;20054;-66
2021/10/07 01:50:45;;;;;;;30.00;15.35;;;;;;;;;;5013430;28;20058;-66
2021/10/07 01:53:30;;;;;;;37.72;18.48;;;;;;;;;;5013215;28;20061;-66
2021/10/07 01:56:15;;;;;;;39.15;19.58;;;;;;;;;;5013263;28;20054;-66
2021/10/07 01:59:01;;;;;;;33.22;16.08;;;;;;;;;;5013403;28;20050;-66
2021/10/07 02:01:46;;;;;;;32.97;15.88;;;;;;;;;;5025987;28;20428;-66
2021/10/07 02:04:31;;;;;;;17.20;11.15;;;;;;;;;;5012698;28;20054;-66
2021/10/07 02:07:16;;;;;;;24.52;13.48;;;;;;;;;;5013054;28;20049;-66
2021/10/07 02:10:04;;;;;;;27.67;14.48;;;;;;;;;;5013056;28;20054;-66
2021/10/07 02:12:49;;;;;;;32.67;15.20;;;;;;;;;;5012817;28;20054;-66
2021/10/07 02:15:35;;;;;;;17.65;11.02;;;;;;;;;;5012593;28;20054;-66
2021/10/07 02:18:20;;;;;;;22.90;12.15;;;;;;;;;;5012812;28;20050;-66
2021/10/07 02:21:05;;;;;;;20.27;10.13;;;;;;;;;;5012756;28;20480;-66
2021/10/07 02:23:51;;;;;;;12.10;7.72;;;;;;;;;;5012396;28;20053;-66
2021/10/07 02:26:36;;;;;;;41.22;13.05;;;;;;;;;;5012621;28;20053;-66
2021/10/07 02:29:21;;;;;;;49.10;16.70;;;;;;;;;;5012816;28;20460;-66
2021/10/07 02:32:07;;;;;;;77.88;21.55;;;;;;;;;;5011343;28;20069;-66
2021/10/07 02:34:52;;;;;;;105.63;22.90;;;;;;;;;;5012282;28;20474;-66
2021/10/07 02:37:37;;;;;;;136.25;18.48;;;;;;;;;;5012288;28;20058;-66
2021/10/07 02:40:23;;;;;;;171.43;19.90;;;;;;;;;;5012569;28;20053;-66
2021/10/07 02:43:08;;;;;;;63.25;12.85;;;;;;;;;;5025381;28;20520;-66
2021/10/07 02:45:53;;;;;;;56.92;12.52;;;;;;;;;;5012350;28;20038;-66
2021/10/07 02:48:39;;;;;;;129.20;19.35;;;;;;;;;;5011636;28;20564;-66
2021/10/07 02:51:24;;;;;;;119.95;18.08;;;;;;;;;;5011306;28;20054;-68
2021/10/07 02:54:09;;;;;;;88.75;22.38;;;;;;;;;;5012019;28;20065;-68
2021/10/07 02:56:54;;;;;;;158.20;25.50;;;;;;;;;;5012191;28;20560;-68
2021/10/07 02:59:39;;;;;;;111.90;18.92;;;;;;;;;;5024798;28;20050;-68
2021/10/07 03:02:24;;;;;;;225.18;31.00;;;;;;;;;;5012266;28;20058;-68
2021/10/07 03:05:10;;;;;;;206.70;31.80;;;;;;;;;;5012114;28;20050;-68
2021/10/07 03:07:55;;;;;;;342.90;42.63;;;;;;;;;;5012137;28;20049;-68
2021/10/07 03:10:40;;;;;;;69.80;21.20;;;;;;;;;;5012229;28;20129;-67
2021/10/07 03:13:27;;;;;;;166.68;29.83;;;;;;;;;;5012172;28;20050;-68
2021/10/07 03:16:12;;;;;;;59.30;20.45;;;;;;;;;;5012429;28;20128;-68
2021/10/07 03:18:58;;;;;;;86.18;22.98;;;;;;;;;;5011984;28;20046;-68
2021/10/07 03:21:43;;;;;;;116.32;27.88;;;;;;;;;;5012125;28;20125;-68
2021/10/07 03:24:28;;;;;;;71.38;19.85;;;;;;;;;;5010489;28;20147;-68
2021/10/07 03:27:14;;;;;;;65.28;19.23;;;;;;;;;;5012024;28;20742;-68
2021/10/07 03:29:59;;;;;;;94.43;22.00;;;;;;;;;;5011917;28;20054;-67
2021/10/07 03:32:44;;;;;;;108.60;22.33;;;;;;;;;;5012149;28;20054;-68
2021/10/07 03:35:30;;;;;;;155.25;30.33;;;;;;;;;;5011904;28;20061;-68
2021/10/07 03:38:15;;;;;;;104.32;22.73;;;;;;;;;;5011558;28;20153;-68
2021/10/07 03:41:00;;;;;;;256.90;40.50;;;;;;;;;;5010690;28;20061;-68
2021/10/07 03:43:45;;;;;;;112.65;25.27;;;;;;;;;;5011546;28;20129;-69
2021/10/07 03:46:30;;;;;;;141.88;26.92;;;;;;;;;;5024407;28;20070;-68
2021/10/07 03:49:16;;;;;;;223.77;37.50;;;;;;;;;;5011757;28;20468;-68
2021/10/07 03:52:01;;;;;;;272.27;39.38;;;;;;;;;;5011816;28;20124;-68
2021/10/07 03:54:46;;;;;;;330.25;44.95;;;;;;;;;;5011363;28;20054;-68
2021/10/07 03:57:31;;;;;;;202.48;31.52;;;;;;;;;;5010439;28;20065;-68
2021/10/07 04:00:17;;;;;;;620.55;65.18;;;;;;;;;;5011705;28;20490;-68
2021/10/07 04:03:02;;;;;;;288.75;42.85;;;;;;;;;;5010408;28;20124;-68
2021/10/07 04:05:48;;;;;;;241.88;38.85;;;;;;;;;;5011102;28;20520;-68
2021/10/07 04:08:33;;;;;;;463.38;57.00;;;;;;;;;;5024226;28;20575;-68
2021/10/07 04:11:20;;;;;;;550.78;67.35;;;;;;;;;;5013126;28;20408;-68
2021/10/07 04:14:05;;;;;;;669.67;72.90;;;;;;;;;;5027660;28;20058;-68
2021/10/07 04:16:53;;;;;;;157.70;36.60;;;;;;;;;;5013381;28;20061;-68
2021/10/07 04:19:38;;;;;;;268.85;40.30;;;;;;;;;;5014837;28;20045;-69
2021/10/07 04:22:24;;;;;;;297.60;42.90;;;;;;;;;;5015008;28;20080;-68
2021/10/07 04:25:09;;;;;;;405.30;50.92;;;;;;;;;;5014600;28;20053;-68
2021/10/07 04:27:56;;;;;;;418.15;52.88;;;;;;;;;;5013396;28;20058;-68
2021/10/07 04:30:41;;;;;;;376.75;50.85;;;;;;;;;;5015042;28;20104;-68
2021/10/07 04:33:27;;;;;;;443.75;59.53;;;;;;;;;;5013213;28;20057;-69
2021/10/07 04:36:12;;;;;;;178.50;38.45;;;;;;;;;;5027610;28;20058;-69
2021/10/07 04:38:57;;;;;;;182.25;38.85;;;;;;;;;;5014653;28;20058;-68
2021/10/07 04:41:42;;;;;;;303.30;46.05;;;;;;;;;;5013385;28;20054;-68
2021/10/07 04:44:27;;;;;;;298.48;43.95;;;;;;;;;;5014199;28;20507;-68
2021/10/07 04:47:13;;;;;;;258.02;41.80;;;;;;;;;;5013209;28;20054;-68
2021/10/07 04:49:58;;;;;;;387.35;51.60;;;;;;;;;;5014704;28;20050;-68
2021/10/07 04:52:43;;;;;;;232.07;40.63;;;;;;;;;;5014529;28;20054;-68
2021/10/07 04:55:28;;;;;;;305.05;44.28;;;;;;;;;;5012772;28;20069;-69
2021/10/07 04:58:13;;;;;;;119.35;28.00;;;;;;;;;;5014110;28;20504;-68
2021/10/07 05:00:58;;;;;;;216.98;36.47;;;;;;;;;;5014457;28;20057;-69
2021/10/07 05:03:44;;;;;;;179.27;33.85;;;;;;;;;;5013923;28;20046;-68
2021/10/07 05:06:29;;;;;;;131.93;28.55;;;;;;;;;;5014354;28;20054;-68
2021/10/07 05:09:17;;;;;;;177.45;34.78;;;;;;;;;;5013955;28;20516;-69
2021/10/07 05:12:02;;;;;;;104.38;27.73;;;;;;;;;;5012761;28;20492;-68
2021/10/07 05:14:47;;;;;;;165.32;31.80;;;;;;;;;;5026759;28;20404;-68
2021/10/07 05:17:32;;;;;;;159.25;30.77;;;;;;;;;;5012967;28;20148;-68
2021/10/07 05:20:18;;;;;;;250.18;37.30;;;;;;;;;;5026448;28;20054;-68
2021/10/07 05:23:04;;;;;;;150.30;28.02;;;;;;;;;;5012561;28;20053;-69
2021/10/07 05:25:50;;;;;;;180.40;31.20;;;;;;;;;;5012238;28;20050;-68
2021/10/07 05:28:35;;;;;;;139.82;27.85;;;;;;;;;;4998352;28;20057;-69
2021/10/07 05:31:20;;;;;;;260.45;35.40;;;;;;;;;;5012469;28;20065;-69
2021/10/07 05:34:05;;;;;;;154.95;26.08;;;;;;;;;;5012014;28;20053;-69
2021/10/07 05:36:50;;;;;;;209.32;29.02;;;;;;;;;;5026519;28;20100;-69
2021/10/07 05:39:35;;;;;;;337.52;34.17;;;;;;;;;;5012145;28;20053;-68
2021/10/07 05:42:21;;;;;;;117.22;22.95;;;;;;;;;;5012533;28;20057;-68
2021/10/07 05:45:10;;;;;;;230.82;26.83;;;;;;;;;;5011815;28;20058;-68
2021/10/07 05:47:55;;;;;;;141.35;21.55;;;;;;;;;;5013345;28;20081;-68
2021/10/07 05:50:41;;;;;;;178.57;23.20;;;;;;;;;;5011052;28;20536;-68
2021/10/07 05:53:26;;;;;;;320.80;29.10;;;;;;;;;;5011573;28;20058;-69
2021/10/07 05:56:11;;;;;;;246.45;26.10;;;;;;;;;;5011440;28;20046;-68
2021/10/07 05:58:57;;;;;;;259.33;24.00;;;;;;;;;;5013067;28;20050;-68
2021/10/07 06:01:42;;;;;;;416.40;34.38;;;;;;;;;;5025866;28;20159;-69
2021/10/07 06:04:27;;;;;;;269.15;25.33;;;;;;;;;;5012945;28;20459;-69
2021/10/07 06:07:13;;;;;;;184.68;23.92;;;;;;;;;;5013049;28;20124;-68
2021/10/07 06:09:58;;;;;;;260.85;24.27;;;;;;;;;;5011725;28;20086;-68
2021/10/07 06:12:44;;;;;;;428.17;31.85;;;;;;;;;;5006099;28;20058;-69
2021/10/07 06:15:29;;;;;;;571.20;42.58;;;;;;;;;;4992923;28;20054;-68
2021/10/07 06:18:14;;;;;;;438.55;33.00;;;;;;;;;;4993320;28;20401;-68
2021/10/07 06:20:59;;;;;;;411.67;32.15;;;;;;;;;;4998342;28;20042;-68
2021/10/07 06:23:45;;;;;;;407.17;27.15;;;;;;;;;;5012112;28;20050;-69
2021/10/07 06:26:31;;;;;;;225.90;17.33;;;;;;;;;;4992974;28;20048;-69
2021/10/07 06:29:17;;;;;;;187.07;17.50;;;;;;;;;;4993011;28;20481;-69
2021/10/07 06:32:02;;;;;;;500.08;37.75;;;;;;;;;;5003719;28;20049;-69
2021/10/07 06:34:47;;;;;;;303.77;22.38;;;;;;;;;;5010622;28;20066;-68
2021/10/07 06:37:33;;;;;;;272.83;20.02;;;;;;;;;;5011400;28;20053;-68
2021/10/07 06:40:18;;;;;;;310.08;23.85;;;;;;;;;;5011162;28;20050;-69
2021/10/07 06:43:03;;;;;;;323.20;23.50;;;;;;;;;;5012432;28;20053;-69
2021/10/07 06:45:50;;;;;;;209.70;18.23;;;;;;;;;;5012294;28;20050;-68
2021/10/07 06:48:35;;;;;;;370.70;25.75;;;;;;;;;;5012450;28;20448;-69
2021/10/07 06:51:20;;;;;;;333.40;23.00;;;;;;;;;;5011151;28;20061;-68
2021/10/07 06:54:06;;;;;;;297.08;21.00;;;;;;;;;;5012063;28;20061;-69
2021/10/07 06:56:51;;;;;;;215.65;16.92;;;;;;;;;;5012512;28;20058;-68
2021/10/07 06:59:36;;;;;;;206.70;15.38;;;;;;;;;;5007763;28;20674;-68
2021/10/07 07:02:21;;;;;;;212.60;16.05;;;;;;;;;;5008429;28;20055;-69
2021/10/07 07:05:07;;;;;;;193.43;16.02;;;;;;;;;;5007726;28;20500;-69
2021/10/07 07:07:52;;;;;;;197.02;15.20;;;;;;;;;;5007754;28;20058;-69
2021/10/07 07:10:37;;;;;;;124.30;12.98;;;;;;;;;;5010633;28;20057;-69
2021/10/07 07:13:22;;;;;;;143.75;14.68;;;;;;;;;;5011013;28;20054;-69
2021/10/07 07:16:07;;;;;;;185.40;16.08;;;;;;;;;;5012271;28;20089;-69
2021/10/07 07:18:53;;;;;;;336.67;24.75;;;;;;;;;;5011979;28;20053;-68
2021/10/07 07:21:38;;;;;;;280.15;15.10;;;;;;;;;;5010780;28;20408;-69
2021/10/07 07:24:23;;;;;;;384.38;22.13;;;;;;;;;;5010561;28;20129;-68
2021/10/07 07:27:11;;;;;;;184.48;13.35;;;;;;;;;;5011722;28;20161;-69
2021/10/07 07:29:56;;;;;;;312.27;21.02;;;;;;;;;;5010661;28;20570;-69
2021/10/07 07:32:41;;;;;;;158.63;11.05;;;;;;;;;;5010640;28;20058;-69
2021/10/07 07:35:29;;;;;;;177.32;11.27;;;;;;;;;;5010338;28;20061;-68
2021/10/07 07:38:14;;;;;;;132.07;10.65;;;;;;;;;;5012080;28;20058;-69
2021/10/07 07:41:00;;;;;;;194.88;14.90;;;;;;;;;;5012022;28;20054;-69
2021/10/07 07:43:45;;;;;;;142.43;12.70;;;;;;;;;;5011496;28;20054;-69
2021/10/07 07:46:32;;;;;;;131.23;11.30;;;;;;;;;;4993891;28;20054;-69
2021/10/07 07:49:17;;;;;;;175.13;13.27;;;;;;;;;;4996020;28;20121;-69
2021/10/07 07:52:02;;;;;;;130.63;11.32;;;;;;;;;;4998077;28;20528;-69
2021/10/07 07:54:47;;;;;;;127.90;10.43;;;;;;;;;;5015380;28;20129;-69
2021/10/07 07:57:33;;;;;;;134.93;11.02;;;;;;;;;;5014254;28;20057;-69
2021/10/07 08:00:18;;;;;;;231.65;14.68;;;;;;;;;;5014122;28;20049;-69
2021/10/07 08:03:03;;;;;;;106.30;9.52;;;;;;;;;;5014040;28;20132;-69
2021/10/07 08:05:49;;;;;;;223.57;15.95;;;;;;;;;;5013917;28;20058;-70
2021/10/07 08:08:34;;;;;;;150.80;12.15;;;;;;;;;;5027773;28;20046;-66
2021/10/07 08:11:19;;;;;;;191.88;12.25;;;;;;;;;;5027351;28;20120;-67
2021/10/07 08:14:04;;;;;;;99.07;10.40;;;;;;;;;;5007835;28;20062;-67
2021/10/07 08:16:49;;;;;;;113.72;9.85;;;;;;;;;;5011688;28;20049;-67
2021/10/07 08:19:35;;;;;;;97.35;9.68;;;;;;;;;;5012401;28;20058;-67
2021/10/07 08:22:22;;;;;;;75.97;7.97;;;;;;;;;;5011357;28;20416;-67
2021/10/07 08:25:08;;;;;;;116.25;9.52;;;;;;;;;;5014683;28;20058;-67
2021/10/07 08:27:53;;;;;;;178.13;11.00;;;;;;;;;;4994057;28;20394;-68
2021/10/07 08:30:38;;;;;;;235.15;14.63;;;;;;;;;;4995449;28;20083;-68
2021/10/07 08:33:23;;;;;;;151.73;12.07;;;;;;;;;;4995480;28;20058;-67
2021/10/07 08:36:08;;;;;;;121.30;9.50;;;;;;;;;;5009182;28;20532;-68
2021/10/07 08:38:53;;;;;;;127.28;10.18;;;;;;;;;;4998991;28;20052;-68
2021/10/07 08:41:39;;;;;;;138.25;10.13;;;;;;;;;;5007721;28;20046;-67
2021/10/07 08:44:24;;;;;;;272.95;16.23;;;;;;;;;;5010758;28;20053;-67
2021/10/07 08:47:09;;;;;;;209.57;12.68;;;;;;;;;;5009124;28;20057;-69
2021/10/07 08:49:54;;;;;;;365.88;18.02;;;;;;;;;;5014029;28;20046;-68
2021/10/07 08:52:39;;;;;;;192.55;12.18;;;;;;;;;;5027319;28;20058;-68
2021/10/07 08:55:24;;;;;;;323.83;21.33;;;;;;;;;;5014030;28;20053;-67
2021/10/07 08:58:11;;;;;;;162.40;11.43;;;;;;;;;;5014441;28;20053;-67
2021/10/07 09:00:56;;;;;;;144.38;12.65;;;;;;;;;;5012837;28;20054;-68
2021/10/07 09:03:41;;;;;;;139.00;10.88;;;;;;;;;;5012641;28;20050;-67
2021/10/07 09:06:27;;;;;;;178.75;13.43;;;;;;;;;;5012941;28;20053;-69
2021/10/07 09:09:12;;;;;;;194.23;13.48;;;;;;;;;;5026728;28;20046;-67
2021/10/07 09:11:58;;;;;;;103.47;10.52;;;;;;;;;;5012687;28;20062;-68
2021/10/07 09:14:44;;;;;;;186.75;12.48;;;;;;;;;;5013925;28;20078;-67
2021/10/07 09:17:29;;;;;;;181.45;12.15;;;;;;;;;;5012517;28;20058;-68
2021/10/07 09:20:14;;;;;;;124.05;10.15;;;;;;;;;;5012441;28;20050;-67
2021/10/07 09:23:26;;;;;;;233.70;16.05;;;;;;;;;;5012477;28;20058;-67
2021/10/07 09:26:13;;;;;;;72.45;9.40;;;;;;;;;;5012541;28;20053;-67
2021/10/07 09:28:59;;;;;;;115.90;11.50;;;;;;;;;;5013647;28;20070;-68
2021/10/07 09:31:45;;;;;;;85.47;9.27;;;;;;;;;;5013323;28;20129;-68
2021/10/07 09:34:37;;;;;;;143.57;13.50;;;;;;;;;;5012177;28;20054;-68
2021/10/07 09:37:22;;;;;;;121.03;12.18;;;;;;;;;;5012163;28;20512;-68
2021/10/07 09:40:08;;;;;;;98.45;11.57;;;;;;;;;;5012946;28;20053;-68
2021/10/07 09:42:55;;;;;;;196.38;14.05;;;;;;;;;;5013159;28;20049;-68
2021/10/07 09:45:40;;;;;;;134.77;12.07;;;;;;;;;;5011918;28;20054;-67
2021/10/07 09:48:25;;;;;;;201.80;15.35;;;;;;;;;;5012023;28;20128;-68
2021/10/07 09:51:14;;;;;;;100.72;10.23;;;;;;;;;;5005279;28;20054;-68
2021/10/07 09:54:04;;;;;;;140.90;14.00;;;;;;;;;;5005541;28;20512;-68
2021/10/07 09:56:56;;;;;;;109.28;12.00;;;;;;;;;;5025912;28;20045;-68
2021/10/07 09:59:41;;;;;;;57.75;9.77;;;;;;;;;;5012030;28;20060;-68
2021/10/07 10:02:27;;;;;;;137.85;14.30;;;;;;;;;;5025891;28;20056;-68
2021/10/07 10:05:13;;;;;;;75.13;11.18;;;;;;;;;;5010512;28;20524;-68
2021/10/07 10:07:59;;;;;;;81.95;10.88;;;;;;;;;;5011008;28;20085;-68
2021/10/07 10:10:45;;;;;;;68.32;12.02;;;;;;;;;;5012711;28;20054;-68
2021/10/07 10:13:32;;;;;;;103.68;14.27;;;;;;;;;;5005981;28;20054;-68
2021/10/07 10:16:17;;;;;;;51.35;11.48;;;;;;;;;;5021057;28;20050;-68
2021/10/07 10:19:03;;;;;;;52.80;12.05;;;;;;;;;;5009206;28;20413;-68
2021/10/07 10:21:48;;;;;;;38.65;10.73;;;;;;;;;;4998470;28;20495;-68
2021/10/07 10:24:34;;;;;;;24.10;11.90;;;;;;;;;;5010615;28;20484;-68
2021/10/07 10:27:19;;;;;;;66.43;12.85;;;;;;;;;;5011807;28;20425;-68
2021/10/07 10:30:19;;;;;;;49.90;13.75;;;;;;;;;;5021515;28;20049;-67
2021/10/07 10:33:04;;;;;;;63.30;14.63;;;;;;;;;;5011604;28;20064;-67
2021/10/07 10:35:50;;;;;;;50.38;11.75;;;;;;;;;;5007745;28;20050;-67
2021/10/07 10:38:35;;;;;;;37.90;12.98;;;;;;;;;;5007639;28;20515;-67
2021/10/07 10:41:20;;;;;;;35.15;11.68;;;;;;;;;;5021158;28;20045;-67
2021/10/07 10:44:25;;;;;;;59.42;12.18;;;;;;;;;;5009991;28;20050;-67
2021/10/07 10:47:11;;;;;;;39.95;12.65;;;;;;;;;;5008367;28;20050;-67
2021/10/07 10:49:59;;;;;;;28.63;12.35;;;;;;;;;;5010797;28;20042;-67
2021/10/07 10:52:50;;;;;;;42.92;13.73;;;;;;;;;;5009257;28;20097;-67
2021/10/07 10:55:37;;;;;;;79.10;13.18;;;;;;;;;;5022277;28;20050;-67
2021/10/07 10:58:22;;;;;;;47.05;12.85;;;;;;;;;;5011283;28;20049;-67
2021/10/07 11:01:14;;;;;;;40.78;13.07;;;;;;;;;;5009972;28;20086;-67
2021/10/07 11:04:08;;;;;;;59.90;15.65;;;;;;;;;;5010770;28;20767;-67
2021/10/07 11:07:11;;;;;;;37.67;14.68;;;;;;;;;;5023126;28;20054;-66
2021/10/07 11:10:01;;;;;;;36.70;14.02;;;;;;;;;;5010683;28;20054;-63
2021/10/07 11:12:50;;;;;;;31.73;15.30;;;;;;;;;;4992699;28;20050;-63
2021/10/07 11:15:35;;;;;;;29.35;13.73;;;;;;;;;;4992387;28;20058;-63
2021/10/07 11:18:24;;;;;;;29.42;14.05;;;;;;;;;;5004166;28;20121;-63
2021/10/07 11:21:16;;;;;;;37.95;16.58;;;;;;;;;;4996663;28;20121;-63
2021/10/07 11:24:02;;;;;;;35.08;13.77;;;;;;;;;;4996272;28;20046;-63
2021/10/07 11:26:47;;;;;;;31.42;14.70;;;;;;;;;;4996381;28;20054;-63
2021/10/07 11:29:32;;;;;;;25.88;14.30;;;;;;;;;;5005456;28;20054;-63
2021/10/07 11:32:18;;;;;;;29.75;14.25;;;;;;;;;;5009362;28;20066;-63
2021/10/07 11:35:05;;;;;;;24.42;14.70;;;;;;;;;;5008780;28;20054;-64
2021/10/07 11:37:52;;;;;;;28.38;14.55;;;;;;;;;;4998165;28;20058;-65
2021/10/07 11:40:45;;;;;;;32.22;14.27;;;;;;;;;;5015649;28;20062;-65
2021/10/07 11:43:31;;;;;;;35.35;14.20;;;;;;;;;;5015390;28;20058;-63
2021/10/07 11:46:18;;;;;;;31.48;15.50;;;;;;;;;;5016128;28;20073;-66
2021/10/07 11:49:03;;;;;;;25.30;15.45;;;;;;;;;;5015388;28;20050;-64
2021/10/07 11:51:48;;;;;;;29.60;14.98;;;;;;;;;;5015586;28;20061;-66
2021/10/07 11:54:33;;;;;;;24.63;14.68;;;;;;;;;;5015546;28;20057;-65
2021/10/07 11:57:20;;;;;;;24.40;15.32;;;;;;;;;;5028448;28;20504;-63
2021/10/07 12:00:06;;;;;;;25.08;15.85;;;;;;;;;;5015352;28;20054;-65
2021/10/07 12:03:07;;;;;;;27.30;17.65;;;;;;;;;;5015588;28;20113;-63
2021/10/07 12:05:54;;;;;;;24.35;16.20;;;;;;;;;;5015436;28;20084;-65
2021/10/07 12:08:42;;;;;;;24.98;16.15;;;;;;;;;;5015077;28;20050;-63
2021/10/07 12:11:28;;;;;;;33.85;18.50;;;;;;;;;;5015361;28;20058;-64
2021/10/07 12:14:13;;;;;;;36.67;18.35;;;;;;;;;;5015023;28;20053;-65
2021/10/07 12:16:58;;;;;;;28.17;16.95;;;;;;;;;;5015061;28;20053;-65
2021/10/07 12:19:44;;;;;;;30.02;19.40;;;;;;;;;;5014976;28;20038;-63
2021/10/07 12:22:30;;;;;;;28.42;18.02;;;;;;;;;;5014867;28;20057;-64
2021/10/07 12:25:18;;;;;;;34.45;20.70;;;;;;;;;;5014884;28;20050;-65
2021/10/07 12:28:03;;;;;;;31.70;19.77;;;;;;;;;;5015157;28;20042;-63
2021/10/07 12:30:49;;;;;;;29.33;19.05;;;;;;;;;;5014139;28;20050;-63
2021/10/07 12:33:35;;;;;;;36.25;20.75;;;;;;;;;;5014273;28;20049;-63
2021/10/07 12:36:20;;;;;;;32.83;19.80;;;;;;;;;;5014933;28;20054;-63
2021/10/07 12:39:06;;;;;;;35.15;19.13;;;;;;;;;;5014575;28;20054;-63
2021/10/07 12:41:52;;;;;;;32.70;20.48;;;;;;;;;;5014716;28;20129;-64
2021/10/07 12:44:47;;;;;;;35.03;20.65;;;;;;;;;;5014470;28;20408;-63
2021/10/07 12:47:32;;;;;;;35.85;20.90;;;;;;;;;;5014528;28;20659;-63
2021/10/07 12:50:18;;;;;;;35.13;20.77;;;;;;;;;;5014278;28;20050;-63
2021/10/07 12:53:03;;;;;;;35.95;23.20;;;;;;;;;;5014632;28;20050;-64
2021/10/07 12:55:48;;;;;;;32.67;21.50;;;;;;;;;;5014282;28;20137;-63
2021/10/07 12:58:33;;;;;;;32.50;20.42;;;;;;;;;;5014452;28;20467;-61
2021/10/07 13:01:19;;;;;;;27.42;19.63;;;;;;;;;;5014141;28;20054;-62
2021/10/07 13:04:11;;;;;;;27.98;19.77;;;;;;;;;;5014185;28;20054;-62
2021/10/07 13:06:57;;;;;;;35.22;21.45;;;;;;;;;;5014181;28;20488;-63
2021/10/07 13:09:42;;;;;;;33.03;21.65;;;;;;;;;;5027341;28;20046;-65
2021/10/07 13:12:27;;;;;;;36.47;21.55;;;;;;;;;;5013809;28;20053;-63
2021/10/07 13:15:13;;;;;;;33.53;20.15;;;;;;;;;;5013637;28;20054;-64
2021/10/07 13:17:58;;;;;;;33.03;21.95;;;;;;;;;;5014324;28;20435;-63
2021/10/07 13:20:45;;;;;;;33.28;22.80;;;;;;;;;;5013672;28;20054;-63
2021/10/07 13:23:30;;;;;;;30.85;21.25;;;;;;;;;;5013210;28;20046;-66
2021/10/07 13:26:16;;;;;;;29.38;20.42;;;;;;;;;;5014046;28;20050;-63
2021/10/07 13:29:01;;;;;;;32.53;21.25;;;;;;;;;;5013950;28;20054;-64
2021/10/07 13:31:47;;;;;;;31.73;22.05;;;;;;;;;;5013382;28;20061;-63
2021/10/07 13:34:32;;;;;;;27.33;19.88;;;;;;;;;;5013470;28;20195;-63
2021/10/07 13:37:17;;;;;;;27.10;20.08;;;;;;;;;;5013908;28;20132;-64
2021/10/07 13:40:02;;;;;;;27.83;20.33;;;;;;;;;;5013399;28;20054;-64
2021/10/07 13:42:48;;;;;;;28.58;19.90;;;;;;;;;;4999258;28;20508;-64
2021/10/07 13:45:33;;;;;;;25.70;18.55;;;;;;;;;;5013324;28;20053;-64
2021/10/07 13:48:19;;;;;;;26.38;20.23;;;;;;;;;;5013479;28;20058;-64
2021/10/07 13:51:04;;;;;;;22.45;18.40;;;;;;;;;;5013518;28;20050;-66
2021/10/07 13:53:49;;;;;;;28.70;20.75;;;;;;;;;;5013259;28;20054;-65
2021/10/07 13:56:35;;;;;;;24.58;19.50;;;;;;;;;;5013527;28;20057;-67
2021/10/07 13:59:20;;;;;;;27.42;19.20;;;;;;;;;;5013522;28;20128;-64
2021/10/07 14:02:05;;;;;;;25.35;19.13;;;;;;;;;;5013068;28;20053;-64
2021/10/07 14:04:51;;;;;;;27.73;20.27;;;;;;;;;;5012670;28;20049;-64
2021/10/07 14:07:36;;;;;;;25.50;19.30;;;;;;;;;;5013325;28;20057;-64
2021/10/07 14:10:23;;;;;;;30.77;21.83;;;;;;;;;;5013088;28;20041;-64
2021/10/07 14:13:09;;;;;;;27.27;20.20;;;;;;;;;;5012941;28;20121;-64
2021/10/07 14:15:54;;;;;;;28.83;21.30;;;;;;;;;;5012851;28;20497;-64
2021/10/07 14:18:39;;;;;;;25.50;20.10;;;;;;;;;;5013272;28;20049;-65
2021/10/07 14:21:24;;;;;;;27.98;19.95;;;;;;;;;;5012986;28;20512;-65
2021/10/07 14:24:10;;;;;;;28.05;21.17;;;;;;;;;;5012918;28;20085;-65
2021/10/07 14:26:55;;;;;;;27.48;19.95;;;;;;;;;;5013016;28;20050;-65
2021/10/07 14:29:44;;;;;;;33.03;21.55;;;;;;;;;;5012583;28;20054;-66
2021/10/07 14:32:29;;;;;;;29.90;21.48;;;;;;;;;;5012768;28;20053;-71
2021/10/07 14:35:14;;;;;;;30.95;22.55;;;;;;;;;;5012006;28;20054;-69
2021/10/07 14:38:00;;;;;;;28.83;21.73;;;;;;;;;;5011341;28;20049;-71
2021/10/07 14:40:45;;;;;;;31.60;22.98;;;;;;;;;;4997289;28;20117;-71
2021/10/07 14:43:30;;;;;;;37.85;23.77;;;;;;;;;;5011265;28;20427;-70
2021/10/07 14:46:16;;;;;;;34.65;24.20;;;;;;;;;;5012615;28;20053;-71
2021/10/07 14:49:01;;;;;;;31.58;22.88;;;;;;;;;;5011432;28;20062;-72
2021/10/07 14:51:46;;;;;;;33.08;23.05;;;;;;;;;;4977184;28;20125;-71
2021/10/07 14:54:32;;;;;;;34.60;24.52;;;;;;;;;;5004462;28;20050;-72
2021/10/07 14:57:19;;;;;;;32.72;23.65;;;;;;;;;;4991634;28;20058;-71
2021/10/07 15:00:09;;;;;;;30.30;22.80;;;;;;;;;;4997203;28;20054;-72
2021/10/07 15:02:54;;;;;;;28.13;22.38;;;;;;;;;;5012079;28;20051;-71
2021/10/07 15:05:40;;;;;;;31.05;23.70;;;;;;;;;;5010854;28;20381;-71
2021/10/07 15:08:25;;;;;;;29.63;23.75;;;;;;;;;;5012352;28;20495;-72
2021/10/07 15:11:11;;;;;;;30.75;24.90;;;;;;;;;;5010675;28;20054;-71
2021/10/07 15:13:56;;;;;;;29.98;22.80;;;;;;;;;;5010348;28;20050;-71
2021/10/07 15:16:41;;;;;;;28.25;23.33;;;;;;;;;;5010851;28;20133;-71
2021/10/07 15:19:26;;;;;;;29.92;24.20;;;;;;;;;;5010537;28;20050;-71
2021/10/07 15:22:12;;;;;;;30.83;23.67;;;;;;;;;;5010689;28;20054;-71
2021/10/07 15:24:58;;;;;;;26.67;22.65;;;;;;;;;;5011668;28;20405;-71
2021/10/07 15:27:43;;;;;;;30.02;24.38;;;;;;;;;;5011924;28;20046;-71
2021/10/07 15:30:28;;;;;;;31.90;25.25;;;;;;;;;;5011681;28;20050;-71
2021/10/07 15:33:15;;;;;;;33.97;25.13;;;;;;;;;;5010630;28;20053;-72
2021/10/07 15:36:00;;;;;;;33.22;25.35;;;;;;;;;;5010876;28;20062;-72
2021/10/07 15:38:45;;;;;;;28.25;23.20;;;;;;;;;;5109730;22;20052;-69
2021/10/07 15:41:30;;;;;;;31.63;25.08;;;;;;;;;;5095573;28;20048;-69
2021/10/07 15:44:16;;;;;;;27.38;22.23;;;;;;;;;;5085706;28;20044;-70
2021/10/07 15:47:01;;;;;;;30.55;23.40;;;;;;;;;;5099311;28;20052;-70
2021/10/07 15:49:46;;;;;;;26.80;22.73;;;;;;;;;;5061945;28;20044;-70
2021/10/07 15:52:31;;;;;;;30.23;24.40;;;;;;;;;;5068415;28;20080;-67
2021/10/07 15:55:17;;;;;;;28.38;23.23;;;;;;;;;;5032711;28;20415;-67
2021/10/07 15:58:02;;;;;;;27.17;23.38;;;;;;;;;;5043674;28;20132;-66
2021/10/07 16:00:48;;;;;;;31.52;25.08;;;;;;;;;;5053037;28;20127;-66
2021/10/07 16:03:34;;;;;;;33.90;24.85;;;;;;;;;;5064111;28;20052;-66
2021/10/07 16:06:19;;;;;;;30.33;24.60;;;;;;;;;;5054060;28;20430;-66
2021/10/07 16:09:04;;;;;;;29.48;23.90;;;;;;;;;;5074711;28;20056;-69
2021/10/07 16:11:51;;;;;;;28.55;23.42;;;;;;;;;;5056500;28;20049;-66